sensor_id;sensor_type;location;lat;lon;timestamp;P1;durP1;ratioP1;P2;durP2;ratioP2
21643;SDS011;10983;51.982;9.226;2024-01-16T00:01:51;9.30;;;1.58;;
21643;SDS011;10983;51.982;9.226;2024-01-16T00:04:18;5.97;;;1.67;;
21643;SDS011;10983;51.982;9.226;2024-01-16T00:06:46;2.67;;;1.23;;
21643;SDS011;10983;51.982;9.226;2024-01-16T00:09:15;2.85;;;1.05;;
21643;SDS011;10983;51.982;9.226;2024-01-16T00:11:42;1.35;;;0.82;;
21643;SDS011;10983;51.982;9.226;2024-01-16T00:14:10;4.90;;;2.08;;
21643;SDS011;10983;51.982;9.226;2024-01-16T00:16:41;3.45;;;1.38;;
21643;SDS011;10983;51.982;9.226;2024-01-16T00:19:09;5.18;;;1.42;;
21643;SDS011;10983;51.982;9.226;2024-01-16T00:21:38;2.95;;;1.10;;
21643;SDS011;10983;51.982;9.226;2024-01-16T00:24:06;1.27;;;1.00;;
21643;SDS011;10983;51.982;9.226;2024-01-16T00:26:35;2.75;;;1.23;;
21643;SDS011;10983;51.982;9.226;2024-01-16T00:29:02;0.75;;;0.75;;
21643;SDS011;10983;51.982;9.226;2024-01-16T00:31:30;2.20;;;1.88;;
21643;SDS011;10983;51.982;9.226;2024-01-16T00:33:57;2.53;;;1.52;;
21643;SDS011;10983;51.982;9.226;2024-01-16T00:36:25;2.95;;;2.08;;
21643;SDS011;10983;51.982;9.226;2024-01-16T00:38:52;6.10;;;1.55;;
21643;SDS011;10983;51.982;9.226;2024-01-16T00:41:20;0.60;;;0.60;;
21643;SDS011;10983;51.982;9.226;2024-01-16T00:43:49;1.00;;;0.98;;
21643;SDS011;10983;51.982;9.226;2024-01-16T00:46:16;1.15;;;1.15;;
21643;SDS011;10983;51.982;9.226;2024-01-16T00:48:44;4.78;;;1.85;;
21643;SDS011;10983;51.982;9.226;2024-01-16T00:51:11;4.88;;;1.27;;
21643;SDS011;10983;51.982;9.226;2024-01-16T00:53:39;3.35;;;1.48;;
21643;SDS011;10983;51.982;9.226;2024-01-16T00:56:07;5.43;;;2.05;;
21643;SDS011;10983;51.982;9.226;2024-01-16T00:58:35;17.80;;;1.48;;
21643;SDS011;10983;51.982;9.226;2024-01-16T01:01:05;3.22;;;1.33;;
21643;SDS011;10983;51.982;9.226;2024-01-16T01:03:32;3.72;;;1.27;;
21643;SDS011;10983;51.982;9.226;2024-01-16T01:06:00;3.75;;;1.67;;
21643;SDS011;10983;51.982;9.226;2024-01-16T01:08:28;3.25;;;1.45;;
21643;SDS011;10983;51.982;9.226;2024-01-16T01:10:56;1.20;;;1.20;;
21643;SDS011;10983;51.982;9.226;2024-01-16T01:13:24;6.85;;;1.27;;
21643;SDS011;10983;51.982;9.226;2024-01-16T01:15:52;2.47;;;1.42;;
21643;SDS011;10983;51.982;9.226;2024-01-16T01:18:20;2.90;;;1.50;;
21643;SDS011;10983;51.982;9.226;2024-01-16T01:20:49;3.90;;;0.98;;
21643;SDS011;10983;51.982;9.226;2024-01-16T01:23:16;9.02;;;1.85;;
21643;SDS011;10983;51.982;9.226;2024-01-16T01:25:44;4.03;;;1.92;;
21643;SDS011;10983;51.982;9.226;2024-01-16T01:28:14;0.60;;;0.60;;
21643;SDS011;10983;51.982;9.226;2024-01-16T01:30:42;1.30;;;1.20;;
21643;SDS011;10983;51.982;9.226;2024-01-16T01:33:09;2.45;;;0.60;;
21643;SDS011;10983;51.982;9.226;2024-01-16T01:35:40;1.60;;;1.50;;
21643;SDS011;10983;51.982;9.226;2024-01-16T01:38:07;1.23;;;1.15;;
21643;SDS011;10983;51.982;9.226;2024-01-16T01:40:35;6.70;;;1.00;;
21643;SDS011;10983;51.982;9.226;2024-01-16T01:43:16;2.40;;;2.10;;
21643;SDS011;10983;51.982;9.226;2024-01-16T01:45:44;4.30;;;1.20;;
21643;SDS011;10983;51.982;9.226;2024-01-16T01:48:14;1.35;;;1.25;;
21643;SDS011;10983;51.982;9.226;2024-01-16T01:50:43;2.08;;;1.85;;
21643;SDS011;10983;51.982;9.226;2024-01-16T01:53:11;1.80;;;1.15;;
21643;SDS011;10983;51.982;9.226;2024-01-16T01:55:39;1.70;;;1.42;;
21643;SDS011;10983;51.982;9.226;2024-01-16T01:58:08;1.80;;;1.15;;
21643;SDS011;10983;51.982;9.226;2024-01-16T02:00:35;0.85;;;0.85;;
21643;SDS011;10983;51.982;9.226;2024-01-16T02:03:03;10.80;;;2.35;;
21643;SDS011;10983;51.982;9.226;2024-01-16T02:05:30;2.55;;;1.63;;
21643;SDS011;10983;51.982;9.226;2024-01-16T02:08:00;3.13;;;2.20;;
21643;SDS011;10983;51.982;9.226;2024-01-16T02:10:29;2.58;;;1.65;;
21643;SDS011;10983;51.982;9.226;2024-01-16T02:12:57;2.17;;;1.60;;
21643;SDS011;10983;51.982;9.226;2024-01-16T02:15:24;2.42;;;1.60;;
21643;SDS011;10983;51.982;9.226;2024-01-16T02:17:52;1.92;;;1.55;;
21643;SDS011;10983;51.982;9.226;2024-01-16T02:20:19;3.35;;;1.67;;
21643;SDS011;10983;51.982;9.226;2024-01-16T02:22:47;1.88;;;0.70;;
21643;SDS011;10983;51.982;9.226;2024-01-16T02:25:22;4.95;;;3.60;;
21643;SDS011;10983;51.982;9.226;2024-01-16T02:27:50;7.72;;;1.63;;
21643;SDS011;10983;51.982;9.226;2024-01-16T02:30:17;2.88;;;1.73;;
21643;SDS011;10983;51.982;9.226;2024-01-16T02:32:45;1.23;;;1.02;;
21643;SDS011;10983;51.982;9.226;2024-01-16T02:35:12;0.80;;;0.80;;
21643;SDS011;10983;51.982;9.226;2024-01-16T02:37:41;1.20;;;1.10;;
21643;SDS011;10983;51.982;9.226;2024-01-16T02:40:09;2.17;;;1.40;;
21643;SDS011;10983;51.982;9.226;2024-01-16T02:42:38;6.85;;;2.47;;
21643;SDS011;10983;51.982;9.226;2024-01-16T02:45:06;2.63;;;1.75;;
21643;SDS011;10983;51.982;9.226;2024-01-16T02:47:34;1.40;;;1.30;;
21643;SDS011;10983;51.982;9.226;2024-01-16T02:50:02;3.53;;;2.47;;
21643;SDS011;10983;51.982;9.226;2024-01-16T02:52:31;3.70;;;1.38;;
21643;SDS011;10983;51.982;9.226;2024-01-16T02:54:58;1.25;;;1.10;;
21643;SDS011;10983;51.982;9.226;2024-01-16T02:57:26;4.10;;;1.65;;
21643;SDS011;10983;51.982;9.226;2024-01-16T02:59:55;1.88;;;1.48;;
21643;SDS011;10983;51.982;9.226;2024-01-16T03:02:22;2.47;;;1.25;;
21643;SDS011;10983;51.982;9.226;2024-01-16T03:04:50;0.70;;;0.63;;
21643;SDS011;10983;51.982;9.226;2024-01-16T03:07:17;2.58;;;1.58;;
21643;SDS011;10983;51.982;9.226;2024-01-16T03:09:44;0.73;;;0.73;;
21643;SDS011;10983;51.982;9.226;2024-01-16T03:12:12;6.30;;;3.47;;
21643;SDS011;10983;51.982;9.226;2024-01-16T03:14:40;9.43;;;2.55;;
21643;SDS011;10983;51.982;9.226;2024-01-16T03:17:08;4.38;;;2.58;;
21643;SDS011;10983;51.982;9.226;2024-01-16T03:19:36;2.78;;;1.67;;
21643;SDS011;10983;51.982;9.226;2024-01-16T03:22:04;6.88;;;2.45;;
21643;SDS011;10983;51.982;9.226;2024-01-16T03:24:31;4.43;;;3.20;;
21643;SDS011;10983;51.982;9.226;2024-01-16T03:26:59;10.88;;;3.42;;
21643;SDS011;10983;51.982;9.226;2024-01-16T03:29:26;6.53;;;2.83;;
21643;SDS011;10983;51.982;9.226;2024-01-16T03:31:54;1.80;;;1.70;;
21643;SDS011;10983;51.982;9.226;2024-01-16T03:34:23;1.45;;;1.02;;
21643;SDS011;10983;51.982;9.226;2024-01-16T03:36:50;2.78;;;1.95;;
21643;SDS011;10983;51.982;9.226;2024-01-16T03:39:18;3.30;;;3.05;;
21643;SDS011;10983;51.982;9.226;2024-01-16T03:41:45;1.65;;;1.55;;
21643;SDS011;10983;51.982;9.226;2024-01-16T03:44:13;4.43;;;3.65;;
21643;SDS011;10983;51.982;9.226;2024-01-16T03:46:40;9.73;;;2.90;;
21643;SDS011;10983;51.982;9.226;2024-01-16T03:49:08;6.00;;;3.78;;
21643;SDS011;10983;51.982;9.226;2024-01-16T03:51:37;3.92;;;3.40;;
21643;SDS011;10983;51.982;9.226;2024-01-16T03:54:04;1.77;;;1.63;;
21643;SDS011;10983;51.982;9.226;2024-01-16T03:56:32;3.78;;;1.88;;
21643;SDS011;10983;51.982;9.226;2024-01-16T03:58:59;3.38;;;1.58;;
21643;SDS011;10983;51.982;9.226;2024-01-16T04:01:30;11.65;;;1.95;;
21643;SDS011;10983;51.982;9.226;2024-01-16T04:04:00;6.53;;;1.75;;
21643;SDS011;10983;51.982;9.226;2024-01-16T04:06:27;4.60;;;3.30;;
21643;SDS011;10983;51.982;9.226;2024-01-16T04:08:57;2.67;;;1.88;;
21643;SDS011;10983;51.982;9.226;2024-01-16T04:11:25;5.63;;;1.70;;
21643;SDS011;10983;51.982;9.226;2024-01-16T04:13:52;1.45;;;1.15;;
21643;SDS011;10983;51.982;9.226;2024-01-16T04:16:19;1.70;;;1.60;;
21643;SDS011;10983;51.982;9.226;2024-01-16T04:18:47;6.07;;;2.53;;
21643;SDS011;10983;51.982;9.226;2024-01-16T04:21:15;7.93;;;3.33;;
21643;SDS011;10983;51.982;9.226;2024-01-16T04:23:46;1.55;;;1.33;;
21643;SDS011;10983;51.982;9.226;2024-01-16T04:26:15;4.07;;;1.65;;
21643;SDS011;10983;51.982;9.226;2024-01-16T04:28:42;1.48;;;1.38;;
21643;SDS011;10983;51.982;9.226;2024-01-16T04:31:10;4.18;;;1.42;;
21643;SDS011;10983;51.982;9.226;2024-01-16T04:33:38;4.88;;;3.20;;
21643;SDS011;10983;51.982;9.226;2024-01-16T04:36:06;14.20;;;2.13;;
21643;SDS011;10983;51.982;9.226;2024-01-16T04:38:34;5.30;;;1.98;;
21643;SDS011;10983;51.982;9.226;2024-01-16T04:41:01;2.13;;;1.75;;
21643;SDS011;10983;51.982;9.226;2024-01-16T04:43:31;1.95;;;1.27;;
21643;SDS011;10983;51.982;9.226;2024-01-16T04:45:58;3.90;;;3.53;;
21643;SDS011;10983;51.982;9.226;2024-01-16T04:48:29;4.25;;;1.48;;
21643;SDS011;10983;51.982;9.226;2024-01-16T04:50:56;1.77;;;1.67;;
21643;SDS011;10983;51.982;9.226;2024-01-16T04:53:24;2.08;;;1.92;;
21643;SDS011;10983;51.982;9.226;2024-01-16T04:55:54;3.75;;;2.72;;
21643;SDS011;10983;51.982;9.226;2024-01-16T04:58:21;19.13;;;3.42;;
21643;SDS011;10983;51.982;9.226;2024-01-16T05:00:50;3.72;;;2.35;;
21643;SDS011;10983;51.982;9.226;2024-01-16T05:03:17;5.88;;;2.38;;
21643;SDS011;10983;51.982;9.226;2024-01-16T05:05:45;6.43;;;2.35;;
21643;SDS011;10983;51.982;9.226;2024-01-16T05:08:13;2.70;;;1.60;;
21643;SDS011;10983;51.982;9.226;2024-01-16T05:10:40;2.33;;;2.17;;
21643;SDS011;10983;51.982;9.226;2024-01-16T05:13:10;3.65;;;2.97;;
21643;SDS011;10983;51.982;9.226;2024-01-16T05:15:38;1.10;;;0.85;;
21643;SDS011;10983;51.982;9.226;2024-01-16T05:18:09;1.23;;;1.17;;
21643;SDS011;10983;51.982;9.226;2024-01-16T05:20:37;2.15;;;1.70;;
21643;SDS011;10983;51.982;9.226;2024-01-16T05:23:04;2.05;;;1.95;;
21643;SDS011;10983;51.982;9.226;2024-01-16T05:25:32;1.77;;;1.30;;
21643;SDS011;10983;51.982;9.226;2024-01-16T05:27:59;4.13;;;1.90;;
21643;SDS011;10983;51.982;9.226;2024-01-16T05:30:27;3.42;;;1.90;;
21643;SDS011;10983;51.982;9.226;2024-01-16T05:32:55;1.58;;;1.48;;
21643;SDS011;10983;51.982;9.226;2024-01-16T05:35:28;1.55;;;1.45;;
21643;SDS011;10983;51.982;9.226;2024-01-16T05:37:56;1.70;;;1.60;;
21643;SDS011;10983;51.982;9.226;2024-01-16T05:40:25;3.45;;;0.75;;
21643;SDS011;10983;51.982;9.226;2024-01-16T05:42:52;3.90;;;3.25;;
21643;SDS011;10983;51.982;9.226;2024-01-16T05:45:21;1.55;;;1.23;;
21643;SDS011;10983;51.982;9.226;2024-01-16T05:47:50;4.38;;;2.38;;
21643;SDS011;10983;51.982;9.226;2024-01-16T05:50:18;5.50;;;3.42;;
21643;SDS011;10983;51.982;9.226;2024-01-16T05:52:47;2.20;;;2.05;;
21643;SDS011;10983;51.982;9.226;2024-01-16T05:55:14;5.35;;;2.88;;
21643;SDS011;10983;51.982;9.226;2024-01-16T05:57:42;2.10;;;1.98;;
21643;SDS011;10983;51.982;9.226;2024-01-16T06:00:10;1.58;;;1.40;;
21643;SDS011;10983;51.982;9.226;2024-01-16T06:02:38;1.40;;;1.30;;
21643;SDS011;10983;51.982;9.226;2024-01-16T06:05:05;7.78;;;4.32;;
21643;SDS011;10983;51.982;9.226;2024-01-16T06:07:33;1.63;;;1.52;;
21643;SDS011;10983;51.982;9.226;2024-01-16T06:10:02;3.28;;;2.97;;
21643;SDS011;10983;51.982;9.226;2024-01-16T06:12:32;6.47;;;2.35;;
21643;SDS011;10983;51.982;9.226;2024-01-16T06:14:59;4.15;;;1.27;;
21643;SDS011;10983;51.982;9.226;2024-01-16T06:17:27;2.05;;;1.70;;
21643;SDS011;10983;51.982;9.226;2024-01-16T06:19:55;1.20;;;1.10;;
21643;SDS011;10983;51.982;9.226;2024-01-16T06:22:23;2.67;;;1.70;;
21643;SDS011;10983;51.982;9.226;2024-01-16T06:24:50;1.65;;;1.55;;
21643;SDS011;10983;51.982;9.226;2024-01-16T06:27:19;4.68;;;2.78;;
21643;SDS011;10983;51.982;9.226;2024-01-16T06:29:47;2.53;;;2.15;;
21643;SDS011;10983;51.982;9.226;2024-01-16T06:32:15;3.03;;;1.15;;
21643;SDS011;10983;51.982;9.226;2024-01-16T06:34:44;5.55;;;3.10;;
21643;SDS011;10983;51.982;9.226;2024-01-16T06:37:11;4.10;;;1.88;;
21643;SDS011;10983;51.982;9.226;2024-01-16T06:39:39;3.75;;;3.42;;
21643;SDS011;10983;51.982;9.226;2024-01-16T06:42:06;7.95;;;3.25;;
21643;SDS011;10983;51.982;9.226;2024-01-16T06:44:38;1.73;;;1.65;;
21643;SDS011;10983;51.982;9.226;2024-01-16T06:47:05;2.35;;;1.92;;
21643;SDS011;10983;51.982;9.226;2024-01-16T06:49:33;0.82;;;0.82;;
21643;SDS011;10983;51.982;9.226;2024-01-16T06:52:01;2.03;;;1.85;;
21643;SDS011;10983;51.982;9.226;2024-01-16T06:54:28;12.60;;;3.97;;
21643;SDS011;10983;51.982;9.226;2024-01-16T06:56:55;3.35;;;2.75;;
21643;SDS011;10983;51.982;9.226;2024-01-16T06:59:23;2.67;;;1.73;;
21643;SDS011;10983;51.982;9.226;2024-01-16T07:01:52;1.42;;;1.33;;
21643;SDS011;10983;51.982;9.226;2024-01-16T07:04:20;3.10;;;2.60;;
21643;SDS011;10983;51.982;9.226;2024-01-16T07:06:48;4.78;;;3.63;;
21643;SDS011;10983;51.982;9.226;2024-01-16T07:09:15;4.00;;;1.52;;
21643;SDS011;10983;51.982;9.226;2024-01-16T07:11:46;1.67;;;1.58;;
21643;SDS011;10983;51.982;9.226;2024-01-16T07:14:13;2.13;;;1.65;;
21643;SDS011;10983;51.982;9.226;2024-01-16T07:16:42;6.00;;;3.72;;
21643;SDS011;10983;51.982;9.226;2024-01-16T07:19:11;1.05;;;1.02;;
21643;SDS011;10983;51.982;9.226;2024-01-16T07:21:39;5.15;;;3.33;;
21643;SDS011;10983;51.982;9.226;2024-01-16T07:24:06;2.58;;;2.25;;
21643;SDS011;10983;51.982;9.226;2024-01-16T07:26:35;2.00;;;1.90;;
21643;SDS011;10983;51.982;9.226;2024-01-16T07:29:03;6.05;;;3.58;;
21643;SDS011;10983;51.982;9.226;2024-01-16T07:31:30;2.42;;;2.22;;
21643;SDS011;10983;51.982;9.226;2024-01-16T07:33:58;2.55;;;2.15;;
21643;SDS011;10983;51.982;9.226;2024-01-16T07:36:27;5.22;;;2.53;;
21643;SDS011;10983;51.982;9.226;2024-01-16T07:38:54;3.13;;;2.83;;
21643;SDS011;10983;51.982;9.226;2024-01-16T07:41:22;0.98;;;0.98;;
21643;SDS011;10983;51.982;9.226;2024-01-16T07:43:50;1.35;;;1.25;;
21643;SDS011;10983;51.982;9.226;2024-01-16T07:46:17;10.50;;;4.35;;
21643;SDS011;10983;51.982;9.226;2024-01-16T07:48:46;7.68;;;3.72;;
21643;SDS011;10983;51.982;9.226;2024-01-16T07:51:14;3.97;;;1.90;;
21643;SDS011;10983;51.982;9.226;2024-01-16T07:53:43;1.42;;;1.33;;
21643;SDS011;10983;51.982;9.226;2024-01-16T07:56:10;5.35;;;2.97;;
21643;SDS011;10983;51.982;9.226;2024-01-16T07:58:38;3.05;;;2.75;;
21643;SDS011;10983;51.982;9.226;2024-01-16T08:01:06;2.50;;;2.30;;
21643;SDS011;10983;51.982;9.226;2024-01-16T08:03:33;3.63;;;2.03;;
21643;SDS011;10983;51.982;9.226;2024-01-16T08:06:01;2.67;;;2.47;;
21643;SDS011;10983;51.982;9.226;2024-01-16T08:08:29;4.22;;;2.75;;
21643;SDS011;10983;51.982;9.226;2024-01-16T08:10:59;2.60;;;1.95;;
21643;SDS011;10983;51.982;9.226;2024-01-16T08:13:29;2.72;;;2.55;;
21643;SDS011;10983;51.982;9.226;2024-01-16T08:15:56;4.43;;;2.88;;
21643;SDS011;10983;51.982;9.226;2024-01-16T08:18:24;4.43;;;3.15;;
21643;SDS011;10983;51.982;9.226;2024-01-16T08:20:53;3.42;;;3.03;;
21643;SDS011;10983;51.982;9.226;2024-01-16T08:23:20;1.95;;;1.60;;
21643;SDS011;10983;51.982;9.226;2024-01-16T08:25:48;6.60;;;4.03;;
21643;SDS011;10983;51.982;9.226;2024-01-16T08:28:19;6.90;;;3.97;;
21643;SDS011;10983;51.982;9.226;2024-01-16T08:30:48;3.95;;;2.47;;
21643;SDS011;10983;51.982;9.226;2024-01-16T08:33:16;10.05;;;2.92;;
21643;SDS011;10983;51.982;9.226;2024-01-16T08:35:48;4.78;;;3.80;;
21643;SDS011;10983;51.982;9.226;2024-01-16T08:38:15;3.28;;;1.33;;
21643;SDS011;10983;51.982;9.226;2024-01-16T08:40:43;2.80;;;2.60;;
21643;SDS011;10983;51.982;9.226;2024-01-16T08:43:10;2.53;;;2.20;;
21643;SDS011;10983;51.982;9.226;2024-01-16T08:45:40;4.40;;;2.53;;
21643;SDS011;10983;51.982;9.226;2024-01-16T08:48:07;3.65;;;3.35;;
21643;SDS011;10983;51.982;9.226;2024-01-16T08:50:35;5.45;;;3.70;;
21643;SDS011;10983;51.982;9.226;2024-01-16T08:53:03;1.85;;;1.30;;
21643;SDS011;10983;51.982;9.226;2024-01-16T08:55:30;7.13;;;3.72;;
21643;SDS011;10983;51.982;9.226;2024-01-16T08:57:58;8.18;;;4.25;;
21643;SDS011;10983;51.982;9.226;2024-01-16T09:00:27;5.53;;;4.40;;
21643;SDS011;10983;51.982;9.226;2024-01-16T09:02:57;6.28;;;5.68;;
21643;SDS011;10983;51.982;9.226;2024-01-16T09:05:28;0.70;;;0.68;;
21643;SDS011;10983;51.982;9.226;2024-01-16T09:07:56;0.98;;;0.95;;
21643;SDS011;10983;51.982;9.226;2024-01-16T09:10:23;2.90;;;2.30;;
21643;SDS011;10983;51.982;9.226;2024-01-16T09:12:51;4.07;;;3.72;;
21643;SDS011;10983;51.982;9.226;2024-01-16T09:15:18;5.25;;;2.17;;
21643;SDS011;10983;51.982;9.226;2024-01-16T09:17:46;5.05;;;3.63;;
21643;SDS011;10983;51.982;9.226;2024-01-16T09:20:15;4.78;;;3.50;;
21643;SDS011;10983;51.982;9.226;2024-01-16T09:22:43;2.47;;;1.60;;
21643;SDS011;10983;51.982;9.226;2024-01-16T09:25:11;20.02;;;3.45;;
21643;SDS011;10983;51.982;9.226;2024-01-16T09:27:38;2.80;;;2.55;;
21643;SDS011;10983;51.982;9.226;2024-01-16T09:30:06;2.05;;;1.88;;
21643;SDS011;10983;51.982;9.226;2024-01-16T09:32:35;4.07;;;3.63;;
21643;SDS011;10983;51.982;9.226;2024-01-16T09:35:03;3.55;;;3.25;;
21643;SDS011;10983;51.982;9.226;2024-01-16T09:37:35;2.65;;;1.75;;
21643;SDS011;10983;51.982;9.226;2024-01-16T09:40:02;7.97;;;3.40;;
21643;SDS011;10983;51.982;9.226;2024-01-16T09:42:31;9.90;;;5.03;;
21643;SDS011;10983;51.982;9.226;2024-01-16T09:45:00;5.45;;;3.92;;
21643;SDS011;10983;51.982;9.226;2024-01-16T09:47:29;1.27;;;1.25;;
21643;SDS011;10983;51.982;9.226;2024-01-16T09:49:58;14.80;;;3.33;;
21643;SDS011;10983;51.982;9.226;2024-01-16T09:52:28;1.58;;;1.42;;
21643;SDS011;10983;51.982;9.226;2024-01-16T09:54:57;4.65;;;3.90;;
21643;SDS011;10983;51.982;9.226;2024-01-16T09:57:26;5.18;;;2.15;;
21643;SDS011;10983;51.982;9.226;2024-01-16T09:59:55;5.03;;;4.18;;
21643;SDS011;10983;51.982;9.226;2024-01-16T10:02:24;2.35;;;2.15;;
21643;SDS011;10983;51.982;9.226;2024-01-16T10:04:52;3.53;;;1.85;;
21643;SDS011;10983;51.982;9.226;2024-01-16T10:07:20;2.28;;;1.90;;
21643;SDS011;10983;51.982;9.226;2024-01-16T10:09:52;1.85;;;1.55;;
21643;SDS011;10983;51.982;9.226;2024-01-16T10:12:20;4.22;;;3.20;;
21643;SDS011;10983;51.982;9.226;2024-01-16T10:14:48;3.15;;;2.50;;
21643;SDS011;10983;51.982;9.226;2024-01-16T10:17:17;4.20;;;2.63;;
21643;SDS011;10983;51.982;9.226;2024-01-16T10:19:47;4.72;;;3.70;;
21643;SDS011;10983;51.982;9.226;2024-01-16T10:22:19;4.80;;;3.60;;
21643;SDS011;10983;51.982;9.226;2024-01-16T10:24:55;4.18;;;2.28;;
21643;SDS011;10983;51.982;9.226;2024-01-16T10:27:33;3.22;;;2.92;;
21643;SDS011;10983;51.982;9.226;2024-01-16T10:30:01;3.60;;;2.45;;
21643;SDS011;10983;51.982;9.226;2024-01-16T10:32:31;5.68;;;3.25;;
21643;SDS011;10983;51.982;9.226;2024-01-16T10:35:05;8.65;;;4.10;;
21643;SDS011;10983;51.982;9.226;2024-01-16T10:37:41;7.15;;;4.00;;
21643;SDS011;10983;51.982;9.226;2024-01-16T10:40:10;4.85;;;3.88;;
21643;SDS011;10983;51.982;9.226;2024-01-16T10:42:39;6.78;;;5.15;;
21643;SDS011;10983;51.982;9.226;2024-01-16T10:45:07;3.15;;;2.47;;
21643;SDS011;10983;51.982;9.226;2024-01-16T10:47:34;5.57;;;5.03;;
21643;SDS011;10983;51.982;9.226;2024-01-16T10:50:04;11.15;;;6.28;;
21643;SDS011;10983;51.982;9.226;2024-01-16T10:52:34;10.63;;;5.40;;
21643;SDS011;10983;51.982;9.226;2024-01-16T10:55:05;5.13;;;3.60;;
21643;SDS011;10983;51.982;9.226;2024-01-16T10:57:36;2.55;;;2.42;;
21643;SDS011;10983;51.982;9.226;2024-01-16T11:00:08;3.80;;;3.03;;
21643;SDS011;10983;51.982;9.226;2024-01-16T11:02:43;6.72;;;4.88;;
21643;SDS011;10983;51.982;9.226;2024-01-16T11:05:17;5.20;;;4.63;;
21643;SDS011;10983;51.982;9.226;2024-01-16T11:07:46;4.53;;;3.95;;
21643;SDS011;10983;51.982;9.226;2024-01-16T11:10:14;6.05;;;5.50;;
21643;SDS011;10983;51.982;9.226;2024-01-16T11:12:43;5.35;;;4.95;;
21643;SDS011;10983;51.982;9.226;2024-01-16T11:15:12;16.73;;;7.20;;
21643;SDS011;10983;51.982;9.226;2024-01-16T11:17:40;9.95;;;5.72;;
21643;SDS011;10983;51.982;9.226;2024-01-16T11:20:11;11.88;;;6.53;;
21643;SDS011;10983;51.982;9.226;2024-01-16T11:23:00;15.43;;;8.90;;
21643;SDS011;10983;51.982;9.226;2024-01-16T11:25:32;20.10;;;11.15;;
21643;SDS011;10983;51.982;9.226;2024-01-16T11:28:11;4.20;;;2.83;;
21643;SDS011;10983;51.982;9.226;2024-01-16T11:30:40;15.80;;;7.07;;
21643;SDS011;10983;51.982;9.226;2024-01-16T11:33:19;3.58;;;3.25;;
21643;SDS011;10983;51.982;9.226;2024-01-16T11:39:18;13.63;;;9.40;;
21643;SDS011;10983;51.982;9.226;2024-01-16T11:41:49;11.20;;;8.57;;
21643;SDS011;10983;51.982;9.226;2024-01-16T11:44:41;7.15;;;6.35;;
21643;SDS011;10983;51.982;9.226;2024-01-16T11:47:15;12.43;;;9.43;;
21643;SDS011;10983;51.982;9.226;2024-01-16T11:49:44;12.52;;;8.82;;
21643;SDS011;10983;51.982;9.226;2024-01-16T11:52:14;5.93;;;3.95;;
21643;SDS011;10983;51.982;9.226;2024-01-16T11:54:42;11.00;;;5.53;;
21643;SDS011;10983;51.982;9.226;2024-01-16T11:57:20;14.52;;;11.50;;
21643;SDS011;10983;51.982;9.226;2024-01-16T12:00:00;14.65;;;9.90;;
21643;SDS011;10983;51.982;9.226;2024-01-16T12:02:38;8.85;;;7.82;;
21643;SDS011;10983;51.982;9.226;2024-01-16T12:05:19;16.00;;;8.13;;
21643;SDS011;10983;51.982;9.226;2024-01-16T12:07:49;8.80;;;5.78;;
21643;SDS011;10983;51.982;9.226;2024-01-16T12:10:19;11.70;;;5.13;;
21643;SDS011;10983;51.982;9.226;2024-01-16T12:12:47;9.10;;;4.10;;
21643;SDS011;10983;51.982;9.226;2024-01-16T12:15:18;8.63;;;6.40;;
21643;SDS011;10983;51.982;9.226;2024-01-16T12:17:53;6.15;;;4.07;;
21643;SDS011;10983;51.982;9.226;2024-01-16T12:20:22;5.90;;;4.65;;
21643;SDS011;10983;51.982;9.226;2024-01-16T12:22:54;5.85;;;3.90;;
21643;SDS011;10983;51.982;9.226;2024-01-16T12:25:23;8.65;;;6.18;;
21643;SDS011;10983;51.982;9.226;2024-01-16T12:28:10;5.82;;;4.35;;
21643;SDS011;10983;51.982;9.226;2024-01-16T12:30:41;5.00;;;3.88;;
21643;SDS011;10983;51.982;9.226;2024-01-16T12:33:16;3.58;;;2.83;;
21643;SDS011;10983;51.982;9.226;2024-01-16T12:35:48;3.57;;;3.23;;
21643;SDS011;10983;51.982;9.226;2024-01-16T12:38:16;4.40;;;4.00;;
21643;SDS011;10983;51.982;9.226;2024-01-16T12:40:45;3.97;;;3.53;;
21643;SDS011;10983;51.982;9.226;2024-01-16T12:43:15;3.72;;;2.67;;
21643;SDS011;10983;51.982;9.226;2024-01-16T12:45:45;3.50;;;3.20;;
21643;SDS011;10983;51.982;9.226;2024-01-16T12:48:13;4.95;;;3.22;;
21643;SDS011;10983;51.982;9.226;2024-01-16T12:50:41;2.60;;;2.25;;
21643;SDS011;10983;51.982;9.226;2024-01-16T12:53:09;13.82;;;3.47;;
21643;SDS011;10983;51.982;9.226;2024-01-16T12:55:38;2.05;;;1.90;;
21643;SDS011;10983;51.982;9.226;2024-01-16T12:58:13;5.28;;;2.25;;
21643;SDS011;10983;51.982;9.226;2024-01-16T13:00:42;8.18;;;4.13;;
21643;SDS011;10983;51.982;9.226;2024-01-16T13:03:15;2.97;;;2.30;;
21643;SDS011;10983;51.982;9.226;2024-01-16T13:05:44;2.25;;;2.10;;
21643;SDS011;10983;51.982;9.226;2024-01-16T13:08:17;2.13;;;1.40;;
21643;SDS011;10983;51.982;9.226;2024-01-16T13:10:45;5.00;;;2.95;;
21643;SDS011;10983;51.982;9.226;2024-01-16T13:13:13;2.72;;;2.30;;
21643;SDS011;10983;51.982;9.226;2024-01-16T13:15:42;3.20;;;2.97;;
21643;SDS011;10983;51.982;9.226;2024-01-16T13:18:21;3.15;;;1.92;;
21643;SDS011;10983;51.982;9.226;2024-01-16T13:20:49;3.30;;;2.97;;
21643;SDS011;10983;51.982;9.226;2024-01-16T13:23:18;2.40;;;2.10;;
21643;SDS011;10983;51.982;9.226;2024-01-16T13:25:48;0.63;;;0.63;;
21643;SDS011;10983;51.982;9.226;2024-01-16T13:28:17;1.48;;;1.48;;
21643;SDS011;10983;51.982;9.226;2024-01-16T13:30:48;2.70;;;2.45;;
21643;SDS011;10983;51.982;9.226;2024-01-16T13:33:16;0.95;;;0.95;;
21643;SDS011;10983;51.982;9.226;2024-01-16T13:35:46;4.72;;;3.08;;
21643;SDS011;10983;51.982;9.226;2024-01-16T13:38:14;3.80;;;2.88;;
21643;SDS011;10983;51.982;9.226;2024-01-16T13:40:43;0.93;;;0.93;;
21643;SDS011;10983;51.982;9.226;2024-01-16T13:43:10;2.50;;;0.93;;
21643;SDS011;10983;51.982;9.226;2024-01-16T13:45:38;0.73;;;0.73;;
21643;SDS011;10983;51.982;9.226;2024-01-16T13:48:07;0.30;;;0.30;;
21643;SDS011;10983;51.982;9.226;2024-01-16T13:50:36;5.25;;;2.00;;
21643;SDS011;10983;51.982;9.226;2024-01-16T13:53:04;0.30;;;0.30;;
21643;SDS011;10983;51.982;9.226;2024-01-16T13:55:33;1.55;;;1.33;;
21643;SDS011;10983;51.982;9.226;2024-01-16T13:58:00;0.50;;;0.50;;
21643;SDS011;10983;51.982;9.226;2024-01-16T14:00:28;0.82;;;0.82;;
21643;SDS011;10983;51.982;9.226;2024-01-16T14:02:57;3.00;;;2.05;;
21643;SDS011;10983;51.982;9.226;2024-01-16T14:05:24;2.60;;;1.95;;
21643;SDS011;10983;51.982;9.226;2024-01-16T14:07:52;1.23;;;1.02;;
21643;SDS011;10983;51.982;9.226;2024-01-16T14:10:22;1.73;;;1.52;;
21643;SDS011;10983;51.982;9.226;2024-01-16T14:12:51;1.42;;;1.33;;
21643;SDS011;10983;51.982;9.226;2024-01-16T14:15:19;10.45;;;1.42;;
21643;SDS011;10983;51.982;9.226;2024-01-16T14:17:51;1.80;;;1.40;;
21643;SDS011;10983;51.982;9.226;2024-01-16T14:20:20;1.30;;;1.20;;
21643;SDS011;10983;51.982;9.226;2024-01-16T14:22:54;0.65;;;0.65;;
21643;SDS011;10983;51.982;9.226;2024-01-16T14:25:23;0.30;;;0.30;;
21643;SDS011;10983;51.982;9.226;2024-01-16T14:27:55;0.63;;;0.63;;
21643;SDS011;10983;51.982;9.226;2024-01-16T14:30:25;3.35;;;3.15;;
21643;SDS011;10983;51.982;9.226;2024-01-16T14:32:53;1.00;;;1.00;;
21643;SDS011;10983;51.982;9.226;2024-01-16T14:35:23;4.38;;;2.28;;
21643;SDS011;10983;51.982;9.226;2024-01-16T14:37:51;0.40;;;0.40;;
21643;SDS011;10983;51.982;9.226;2024-01-16T14:40:18;0.88;;;0.68;;
21643;SDS011;10983;51.982;9.226;2024-01-16T14:42:52;0.40;;;0.40;;
21643;SDS011;10983;51.982;9.226;2024-01-16T14:45:20;1.65;;;0.73;;
21643;SDS011;10983;51.982;9.226;2024-01-16T14:47:48;0.40;;;0.40;;
21643;SDS011;10983;51.982;9.226;2024-01-16T14:50:16;1.77;;;1.63;;
21643;SDS011;10983;51.982;9.226;2024-01-16T14:52:44;0.73;;;0.73;;
21643;SDS011;10983;51.982;9.226;2024-01-16T14:55:17;0.50;;;0.50;;
21643;SDS011;10983;51.982;9.226;2024-01-16T14:57:46;0.88;;;0.88;;
21643;SDS011;10983;51.982;9.226;2024-01-16T15:00:20;2.20;;;1.10;;